Weather at Ar Rutbah Highway Strip

Public forecast

Using degrees Celsius for public forecast. Weather courtesy of forecast.io.

Closest aviation weather report (METAR) to Ar Rutbah Highway Strip

Report is more than 6 hours old.

Closest report is Al Asad Air Base, 111.4 nm (206.2 km) ENE. Retrieved 2019/11/05 09:00 UTC (2 years ago):

ORAA 050900Z 00000KT 9999 SKC 26/10 A3021

Closest aviation forecast (TAF) to Ar Rutbah Highway Strip

Forecast is more than 6 hours old.

Closest forecast is Turaif Domestic Airport, 117.7 nm (218.1 km) SW. Retrieved 2022-01-27 00:09 UTC (8 hours ago):

TAF OETR 262300Z 2700/2806 26014KT 7000 SCT020 TEMPO 2700/2704 SN BKN020 BECMG 2706/2708 28016G26KT TEMPO 2706/2714 3000 BLDU BECMG 2718/2720 24012KT